createdAt,value
2023-04-15T00:02:15.908Z,100148.47
2023-04-15T00:04:43.552Z,100146.59
2023-04-15T00:07:11.131Z,100144.88
2023-04-15T00:09:38.687Z,100141.31
2023-04-15T00:12:07.980Z,100142.56
2023-04-15T00:14:36.617Z,100138.88
2023-04-15T00:17:04.395Z,100140.78
2023-04-15T00:19:32.518Z,100146.13
2023-04-15T00:22:00.789Z,100136.81
2023-04-15T00:24:28.201Z,100143.44
2023-04-15T00:26:55.763Z,100142.50
2023-04-15T00:29:24.620Z,100139.09
2023-04-15T00:31:52.145Z,100134.16
2023-04-15T00:34:19.555Z,100134.84
2023-04-15T00:36:47.072Z,100130.88
2023-04-15T00:39:14.727Z,100127.47
2023-04-15T00:41:42.139Z,100130.88
2023-04-15T00:44:10.497Z,100125.84
2023-04-15T00:46:40.298Z,100125.88
2023-04-15T00:49:08.240Z,100125.03
2023-04-15T00:51:37.095Z,100124.22
2023-04-15T00:54:05.124Z,100130.22
2023-04-15T00:56:36.004Z,100130.41
2023-04-15T00:59:03.511Z,100127.81
2023-04-15T01:01:31.431Z,100121.69
2023-04-15T01:04:00.375Z,100120.81
2023-04-15T01:06:28.193Z,100120.91
2023-04-15T01:08:56.562Z,100117.34
2023-04-15T01:11:24.996Z,100121.69
2023-04-15T01:13:52.980Z,100110.31
2023-04-15T01:16:21.307Z,100113.25
2023-04-15T01:18:49.588Z,100112.41
2023-04-15T01:21:19.353Z,100100.41
2023-04-15T01:23:48.890Z,100110.50
2023-04-15T01:26:18.264Z,100103.69
2023-04-15T01:28:46.063Z,100108.06
2023-04-15T01:31:15.345Z,100111.47
2023-04-15T01:33:44.348Z,100113.97
2023-04-15T01:36:11.825Z,100111.50
2023-04-15T01:38:39.977Z,100113.88
2023-04-15T01:41:08.262Z,100110.66
2023-04-15T01:43:37.774Z,100101.97
2023-04-15T01:46:05.322Z,100114.94
2023-04-15T01:48:33.464Z,100108.81
2023-04-15T01:54:24.263Z,100104.44
2023-04-15T01:56:52.074Z,100103.78
2023-04-15T01:59:20.929Z,100103.69
2023-04-15T02:01:48.393Z,100104.50
2023-04-15T02:04:17.323Z,100102.72
2023-04-15T02:06:44.894Z,100101.81
2023-04-15T02:09:12.403Z,100105.28
2023-04-15T02:11:39.876Z,100103.47
2023-04-15T02:14:07.356Z,100097.66
2023-04-15T02:16:36.604Z,100101.03
2023-04-15T02:19:04.266Z,100095.97
2023-04-15T02:21:31.851Z,100100.31
2023-04-15T02:23:59.289Z,100099.47
2023-04-15T02:26:26.699Z,100096.09
2023-04-15T02:28:54.202Z,100084.13
2023-04-15T02:31:22.183Z,100093.56
2023-04-15T02:33:51.059Z,100095.22
2023-04-15T02:36:18.482Z,100090.09
2023-04-15T02:38:45.937Z,100097.47
2023-04-15T02:41:13.651Z,100093.38
2023-04-15T02:43:41.123Z,100096.75
2023-04-15T02:46:08.756Z,100100.22
2023-04-15T02:48:36.934Z,100095.28
2023-04-15T02:51:16.771Z,100106.88
2023-04-15T02:53:44.361Z,100105.88
2023-04-15T02:56:12.556Z,100106.78
2023-04-15T02:58:41.341Z,100102.00
2023-04-15T03:01:09.135Z,100097.75
2023-04-15T03:03:36.871Z,100109.31
2023-04-15T03:06:04.553Z,100114.41
2023-04-15T03:08:33.365Z,100115.25
2023-04-15T03:11:02.689Z,100107.63
2023-04-15T03:13:30.160Z,100113.63
2023-04-15T03:15:57.667Z,100111.31
2023-04-15T03:18:25.407Z,100106.03
2023-04-15T03:20:52.880Z,100114.63
2023-04-15T03:23:20.752Z,100104.16
2023-04-15T03:25:58.077Z,100103.41
2023-04-15T03:28:26.875Z,100111.91
2023-04-15T03:30:54.337Z,100114.72
2023-04-15T03:33:21.825Z,100108.69
2023-04-15T03:35:49.432Z,100112.13
2023-04-15T03:38:19.085Z,100105.53
2023-04-15T03:40:49.380Z,100112.25
2023-04-15T03:43:17.136Z,100118.94
2023-04-15T03:45:44.709Z,100116.44
2023-04-15T03:48:17.682Z,100114.56
2023-04-15T03:50:46.033Z,100110.16
2023-04-15T03:53:13.562Z,100111.25
2023-04-15T03:55:41.032Z,100111.22
2023-04-15T03:58:12.794Z,100108.69
2023-04-15T04:00:41.426Z,100110.38
2023-04-15T04:03:09.222Z,100116.25
2023-04-15T04:05:39.062Z,100101.22
2023-04-15T04:08:07.225Z,100115.53
2023-04-15T04:10:36.581Z,100116.22
2023-04-15T04:13:04.090Z,100120.84
2023-04-15T04:15:32.984Z,100113.19
2023-04-15T04:18:00.863Z,100116.72
2023-04-15T04:20:28.387Z,100114.88
2023-04-15T04:22:55.991Z,100113.25
2023-04-15T04:25:24.509Z,100111.53
2023-04-15T04:27:52.085Z,100118.34
2023-04-15T04:30:19.795Z,100117.41
2023-04-15T04:32:48.636Z,100122.50
2023-04-15T04:35:16.116Z,100120.91
2023-04-15T04:37:43.538Z,100120.06
2023-04-15T04:40:11.959Z,100115.88
2023-04-15T04:42:40.105Z,100115.00
2023-04-15T04:45:08.621Z,100120.19
2023-04-15T04:47:36.375Z,100125.31
2023-04-15T04:50:05.848Z,100119.31
2023-04-15T04:52:33.344Z,100123.59
2023-04-15T04:55:00.841Z,100123.59
2023-04-15T04:57:28.363Z,100129.50
2023-04-15T04:59:55.920Z,100127.03
2023-04-15T05:02:23.615Z,100137.00
2023-04-15T05:04:54.388Z,100140.56
2023-04-15T05:07:23.347Z,100142.19
2023-04-15T05:09:50.885Z,100143.13
2023-04-15T05:12:18.471Z,100144.78
2023-04-15T05:14:46.743Z,100142.94
2023-04-15T05:17:14.299Z,100150.78
2023-04-15T05:19:41.684Z,100148.19
2023-04-15T05:22:09.279Z,100139.94
2023-04-15T05:24:38.045Z,100145.00
2023-04-15T05:27:05.565Z,100155.25
2023-04-15T05:29:33.002Z,100160.38
2023-04-15T05:32:00.502Z,100148.50
2023-04-15T05:34:27.936Z,100145.97
2023-04-15T05:36:55.416Z,100157.94
2023-04-15T05:39:22.936Z,100162.25
2023-04-15T05:41:52.103Z,100158.78
2023-04-15T05:44:19.645Z,100152.78
2023-04-15T05:46:47.188Z,100153.66
2023-04-15T05:49:14.712Z,100163.91
2023-04-15T05:51:42.216Z,100160.53
2023-04-15T05:54:09.637Z,100168.94
2023-04-15T05:56:37.109Z,100158.69
2023-04-15T05:59:05.827Z,100155.38
2023-04-15T06:01:34.894Z,100148.47
2023-04-15T06:04:03.137Z,100148.53
2023-04-15T06:06:30.853Z,100149.34
2023-04-15T06:08:58.321Z,100156.22
2023-04-15T06:11:26.734Z,100154.53
2023-04-15T06:13:54.176Z,100159.66
2023-04-15T06:16:23.199Z,100163.84
2023-04-15T06:18:50.712Z,100150.22
2023-04-15T06:21:18.176Z,100153.69
2023-04-15T06:23:45.856Z,100155.41
2023-04-15T06:26:13.285Z,100153.69
2023-04-15T06:28:40.702Z,100148.53
2023-04-15T06:31:08.168Z,100149.31
2023-04-15T06:33:36.893Z,100155.41
2023-04-15T06:36:04.510Z,100161.38
2023-04-15T06:38:32.104Z,100156.25
2023-04-15T06:40:59.570Z,100167.41
2023-04-15T06:43:27.037Z,100161.38
2023-04-15T06:45:54.529Z,100162.25
2023-04-15T06:48:22.074Z,100160.53
2023-04-15T06:50:51.449Z,100164.56
2023-04-15T06:53:19.537Z,100167.00
2023-04-15T06:55:46.961Z,100174.13
2023-04-15T06:58:14.403Z,100181.09
2023-04-15T07:00:41.817Z,100183.78
2023-04-15T07:03:11.298Z,100182.03
2023-04-15T07:05:38.839Z,100190.47
2023-04-15T07:08:07.684Z,100189.75
2023-04-15T07:10:35.253Z,100194.03
2023-04-15T07:13:02.803Z,100198.34
2023-04-15T07:15:30.212Z,100197.50
2023-04-15T07:17:57.664Z,100198.38
2023-04-15T07:20:25.638Z,100205.22
2023-04-15T07:22:53.170Z,100212.91
2023-04-15T07:25:22.268Z,100219.78
2023-04-15T07:27:49.737Z,100213.78
2023-04-15T07:30:17.407Z,100210.41
2023-04-15T07:32:44.817Z,100222.38
2023-04-15T07:35:12.264Z,100219.84
2023-04-15T07:37:39.740Z,100236.06
2023-04-15T07:40:09.013Z,100234.31
2023-04-15T07:42:40.036Z,100235.16
2023-04-15T07:45:09.894Z,100237.75
2023-04-15T07:47:37.392Z,100239.50
2023-04-15T07:50:05.357Z,100228.34
2023-04-15T07:52:38.417Z,100236.97
2023-04-15T07:55:07.092Z,100232.75
2023-04-15T07:57:34.548Z,100242.88
2023-04-15T08:00:05.796Z,100239.56
2023-04-15T08:02:33.466Z,100239.44
2023-04-15T08:05:02.961Z,100244.47
2023-04-15T08:07:30.504Z,100240.31
2023-04-15T08:09:57.920Z,100234.41
2023-04-15T08:12:25.838Z,100244.63
2023-04-15T08:14:53.265Z,100242.06
2023-04-15T08:17:22.031Z,100241.13
2023-04-15T08:19:58.711Z,100243.78
2023-04-15T08:22:26.162Z,100255.81
2023-04-15T08:24:53.566Z,100259.16
2023-04-15T08:27:21.510Z,100254.94
2023-04-15T08:29:48.936Z,100262.59
2023-04-15T08:32:16.965Z,100265.09
2023-04-15T08:34:45.829Z,100261.72
2023-04-15T08:37:13.492Z,100258.50
2023-04-15T08:39:40.955Z,100267.88
2023-04-15T08:42:16.986Z,100266.84
2023-04-15T08:44:44.625Z,100259.34
2023-04-15T08:47:14.856Z,100258.53
2023-04-15T08:49:43.716Z,100264.47
2023-04-15T08:52:12.729Z,100265.38
2023-04-15T08:54:40.638Z,100272.19
2023-04-15T08:57:08.597Z,100275.66
2023-04-15T08:59:36.406Z,100273.88
2023-04-15T09:02:04.638Z,100271.22
2023-04-15T09:04:32.380Z,100285.84
2023-04-15T09:06:59.758Z,100272.22
2023-04-15T09:09:29.111Z,100270.50
2023-04-15T09:11:56.806Z,100286.72
2023-04-15T09:14:24.238Z,100280.72
2023-04-15T09:16:58.436Z,100277.38
2023-04-15T09:19:26.502Z,100275.72
2023-04-15T09:21:58.635Z,100291.03
2023-04-15T09:24:37.375Z,100290.25
2023-04-15T09:27:05.441Z,100280.78
2023-04-15T09:29:34.220Z,100286.00
2023-04-15T09:32:13.941Z,100291.97
2023-04-15T09:34:41.827Z,100289.44
2023-04-15T09:37:10.939Z,100291.22
2023-04-15T09:39:51.047Z,100299.66
2023-04-15T09:42:24.553Z,100297.94
2023-04-15T09:44:52.762Z,100303.06
2023-04-15T09:47:30.111Z,100302.22
2023-04-15T09:49:58.506Z,100309.16
2023-04-15T09:52:26.178Z,100307.38
2023-04-15T09:54:56.624Z,100313.44
2023-04-15T09:57:24.631Z,100319.50
2023-04-15T09:59:52.180Z,100310.03
2023-04-15T10:02:20.773Z,100308.38
2023-04-15T10:04:49.650Z,100322.06
2023-04-15T10:07:20.537Z,100323.69
2023-04-15T10:09:49.690Z,100316.88
2023-04-15T10:12:19.688Z,100323.88
2023-04-15T10:14:53.639Z,100327.22
2023-04-15T10:17:23.463Z,100320.41
2023-04-15T10:19:55.474Z,100332.41
2023-04-15T10:22:23.840Z,100330.72
2023-04-15T10:24:52.256Z,100332.38
2023-04-15T10:27:22.078Z,100326.44
2023-04-15T10:29:50.345Z,100325.63
2023-04-15T10:32:20.015Z,100330.66
2023-04-15T10:34:48.297Z,100324.59
2023-04-15T10:37:22.071Z,100330.72
2023-04-15T10:39:50.717Z,100334.16
2023-04-15T10:42:20.702Z,100337.59
2023-04-15T10:44:51.590Z,100335.00
2023-04-15T10:47:21.483Z,100342.69
2023-04-15T10:49:50.900Z,100350.34
2023-04-15T10:52:19.794Z,100348.66
2023-04-15T10:54:47.570Z,100350.44
2023-04-15T10:57:17.468Z,100343.59
2023-04-15T11:00:12.828Z,100343.59
2023-04-15T11:02:42.340Z,100340.13
2023-04-15T11:05:10.601Z,100340.13
2023-04-15T11:07:48.539Z,100351.34
2023-04-15T11:10:53.754Z,100359.00
2023-04-15T11:13:27.250Z,100356.50
2023-04-15T11:16:00.281Z,100359.03
2023-04-15T11:18:31.230Z,100353.97
2023-04-15T11:21:01.111Z,100359.09
2023-04-15T11:23:30.545Z,100377.84
2023-04-15T11:25:58.534Z,100371.94
2023-04-15T11:28:27.824Z,100375.41
2023-04-15T11:30:55.648Z,100365.16
2023-04-15T11:33:25.889Z,100371.94
2023-04-15T11:35:55.067Z,100368.59
2023-04-15T11:38:23.263Z,100380.63
2023-04-15T11:40:52.100Z,100380.63
2023-04-15T11:43:21.505Z,100382.34
2023-04-15T11:45:51.478Z,100386.59
2023-04-15T11:48:20.067Z,100398.50
2023-04-15T11:50:54.478Z,100392.63
2023-04-15T11:53:22.077Z,100392.56
2023-04-15T11:55:51.224Z,100395.28
2023-04-15T11:58:20.559Z,100392.69
2023-04-15T12:00:49.646Z,100406.41
2023-04-15T12:03:23.846Z,100400.38
2023-04-15T12:06:23.494Z,100404.72
2023-04-15T12:08:52.618Z,100396.00
2023-04-15T12:11:20.519Z,100404.53
2023-04-15T12:13:49.531Z,100400.41
2023-04-15T12:16:18.680Z,100416.78
2023-04-15T12:18:47.138Z,100419.25
2023-04-15T12:21:15.418Z,100418.44
2023-04-15T12:23:50.683Z,100420.19
2023-04-15T12:26:19.133Z,100420.22
2023-04-15T12:28:46.792Z,100420.19
2023-04-15T12:31:15.596Z,100430.44
2023-04-15T12:33:43.456Z,100432.13
2023-04-15T12:36:10.927Z,100431.38
2023-04-15T12:38:38.319Z,100430.56
2023-04-15T12:41:07.041Z,100435.66
2023-04-15T12:43:34.452Z,100443.44
2023-04-15T12:46:01.840Z,100445.91
2023-04-15T12:48:29.296Z,100434.00
2023-04-15T12:50:56.880Z,100437.41
2023-04-15T12:53:24.300Z,100442.59
2023-04-15T12:55:51.806Z,100439.13
2023-04-15T12:58:20.526Z,100442.59
2023-04-15T13:00:48.621Z,100448.63
2023-04-15T13:03:16.450Z,100460.66
2023-04-15T13:05:44.408Z,100461.38
2023-04-15T13:08:12.017Z,100458.78
2023-04-15T13:10:39.501Z,100458.91
2023-04-15T13:13:06.993Z,100452.91
2023-04-15T13:15:35.929Z,100462.25
2023-04-15T13:18:03.427Z,100461.53
2023-04-15T13:20:31.255Z,100467.53
2023-04-15T13:22:58.654Z,100460.66
2023-04-15T13:25:27.058Z,100468.41
2023-04-15T13:27:54.486Z,100472.72
2023-04-15T13:30:21.952Z,100475.25
2023-04-15T13:32:51.194Z,100478.69
2023-04-15T13:35:18.832Z,100464.97
2023-04-15T13:37:46.317Z,100476.94
2023-04-15T13:40:13.842Z,100477.88
2023-04-15T13:42:41.601Z,100466.69
2023-04-15T13:45:11.063Z,100471.84
2023-04-15T13:47:38.619Z,100473.53
2023-04-15T13:50:08.529Z,100482.19
2023-04-15T13:52:36.199Z,100477.03
2023-04-15T13:55:08.172Z,100489.94
2023-04-15T13:57:48.478Z,100474.41
2023-04-15T14:00:16.643Z,100483.84
2023-04-15T14:02:44.304Z,100490.78
2023-04-15T14:05:13.168Z,100494.22
2023-04-15T14:07:40.831Z,100495.97
2023-04-15T14:10:09.313Z,100495.94
2023-04-15T14:12:36.949Z,100501.94
2023-04-15T14:15:05.058Z,100511.31
2023-04-15T14:17:33.949Z,100504.34
2023-04-15T14:20:01.508Z,100507.03
2023-04-15T14:22:30.226Z,100501.81
2023-04-15T14:24:57.656Z,100514.81
2023-04-15T14:27:25.091Z,100515.66
2023-04-15T14:29:53.534Z,100517.19
2023-04-15T14:32:21.025Z,100522.19
2023-04-15T14:34:48.522Z,100526.84
2023-04-15T14:37:16.029Z,100526.00
2023-04-15T14:39:44.770Z,100527.72
2023-04-15T14:42:12.181Z,100543.88
2023-04-15T14:44:39.629Z,100542.03
2023-04-15T14:47:07.221Z,100536.97
2023-04-15T14:49:34.653Z,100548.88
2023-04-15T14:52:02.039Z,100540.31
2023-04-15T14:54:29.459Z,100545.53
2023-04-15T14:56:58.478Z,100548.94
2023-04-15T14:59:26.114Z,100554.94
2023-04-15T15:01:53.919Z,100556.59
2023-04-15T15:04:21.558Z,100548.09
2023-04-15T15:06:49.220Z,100557.50
2023-04-15T15:09:16.771Z,100569.47
2023-04-15T15:11:44.211Z,100560.19
2023-04-15T15:14:12.946Z,100573.13
2023-04-15T15:16:40.344Z,100566.91
2023-04-15T15:19:07.745Z,100565.22
2023-04-15T15:21:35.558Z,100578.13
2023-04-15T15:24:02.948Z,100576.53
2023-04-15T15:26:30.391Z,100575.81
2023-04-15T15:28:58.003Z,100576.50
2023-04-15T15:31:26.800Z,100591.94
2023-04-15T15:33:54.316Z,100587.69
2023-04-15T15:36:21.813Z,100592.31
2023-04-15T15:38:49.230Z,100592.81
2023-04-15T15:41:16.773Z,100591.09
2023-04-15T15:43:44.179Z,100594.75
2023-04-15T15:46:11.698Z,100587.84
2023-04-15T15:48:40.494Z,100597.91
2023-04-15T15:51:07.906Z,100598.59
2023-04-15T15:53:35.378Z,100592.75
2023-04-15T15:56:04.072Z,100602.09
2023-04-15T15:58:32.020Z,100610.75
2023-04-15T16:01:02.067Z,100604.63
2023-04-15T16:03:30.110Z,100614.13
2023-04-15T16:05:58.939Z,100617.53
2023-04-15T16:08:26.596Z,100612.66
2023-04-15T16:10:54.046Z,100614.22
2023-04-15T16:13:21.453Z,100616.03
2023-04-15T16:15:50.055Z,100622.84
2023-04-15T16:18:17.608Z,100618.72
2023-04-15T16:20:45.307Z,100621.53
2023-04-15T16:23:15.651Z,100626.28
2023-04-15T16:25:44.513Z,100624.63
2023-04-15T16:28:25.118Z,100628.19
2023-04-15T16:30:54.415Z,100626.44
2023-04-15T16:33:21.901Z,100636.63
2023-04-15T16:35:49.397Z,100631.72
2023-04-15T16:38:18.223Z,100637.00
2023-04-15T16:40:45.697Z,100639.53
2023-04-15T16:43:13.139Z,100633.59
2023-04-15T16:45:40.649Z,100639.31
2023-04-15T16:48:08.313Z,100643.56
2023-04-15T16:50:37.345Z,100645.44
2023-04-15T16:53:04.791Z,100641.28
2023-04-15T16:55:33.534Z,100650.34
2023-04-15T16:58:04.184Z,100646.13
2023-04-15T17:00:33.007Z,100653.06
2023-04-15T17:03:01.461Z,100658.59
2023-04-15T17:05:29.203Z,100667.53
2023-04-15T17:07:56.616Z,100668.75
2023-04-15T17:10:24.445Z,100668.66
2023-04-15T17:12:53.382Z,100668.03
2023-04-15T17:15:21.215Z,100673.13
2023-04-15T17:17:48.760Z,100672.34
2023-04-15T17:20:17.400Z,100681.63
2023-04-15T17:22:45.212Z,100674.06
2023-04-15T17:25:14.228Z,100678.44
2023-04-15T17:27:41.879Z,100686.63
2023-04-15T17:30:11.744Z,100700.28
2023-04-15T17:32:40.019Z,100699.38
2023-04-15T17:35:08.755Z,100707.13
2023-04-15T17:37:36.288Z,100703.69
2023-04-15T17:40:06.644Z,100702.75
2023-04-15T17:42:35.568Z,100707.84
2023-04-15T17:45:03.124Z,100712.41
2023-04-15T17:47:31.974Z,100710.72
2023-04-15T17:49:59.408Z,100727.88
2023-04-15T17:52:26.907Z,100721.81
2023-04-15T17:54:54.364Z,100726.22
2023-04-15T17:57:21.772Z,100722.78
2023-04-15T17:59:49.224Z,100734.47
2023-04-15T18:02:16.748Z,100737.25
2023-04-15T18:04:45.770Z,100735.50
2023-04-15T18:07:13.488Z,100743.94
2023-04-15T18:09:41.492Z,100739.88
2023-04-15T18:12:09.188Z,100749.34
2023-04-15T18:14:36.887Z,100750.09
2023-04-15T18:17:04.559Z,100754.13
2023-04-15T18:19:32.069Z,100758.34
2023-04-15T18:22:00.980Z,100758.75
2023-04-15T18:24:28.722Z,100761.66
2023-04-15T18:26:56.394Z,100762.66
2023-04-15T18:29:24.009Z,100767.50
2023-04-15T18:31:52.630Z,100768.78
2023-04-15T18:34:20.204Z,100774.41
2023-04-15T18:36:47.638Z,100776.38
2023-04-15T18:39:17.029Z,100779.78
2023-04-15T18:41:44.497Z,100787.91
2023-04-15T18:44:11.953Z,100792.91
2023-04-15T18:46:39.444Z,100797.84
2023-04-15T18:49:07.037Z,100796.28
2023-04-15T18:51:34.667Z,100799.50
2023-04-15T18:54:02.426Z,100804.69
2023-04-15T18:56:31.516Z,100807.13
2023-04-15T18:59:09.544Z,100802.06
2023-04-15T19:01:46.697Z,100803.06
2023-04-15T19:04:14.353Z,100803.03
2023-04-15T19:06:41.913Z,100809.13
2023-04-15T19:09:09.439Z,100815.94
2023-04-15T19:11:38.397Z,100805.31
2023-04-15T19:14:06.637Z,100824.97
2023-04-15T19:16:34.091Z,100817.78
2023-04-15T19:19:01.668Z,100828.91
2023-04-15T19:21:30.450Z,100819.69
2023-04-15T19:23:58.351Z,100818.81
2023-04-15T19:26:25.803Z,100833.00
2023-04-15T19:28:54.730Z,100827.34
2023-04-15T19:31:22.210Z,100837.75
2023-04-15T19:33:49.780Z,100826.31
2023-04-15T19:36:18.073Z,100828.06
2023-04-15T19:38:45.550Z,100834.66
2023-04-15T19:41:13.079Z,100844.53
2023-04-15T19:43:40.483Z,100842.19
2023-04-15T19:46:09.610Z,100844.47
2023-04-15T19:48:37.056Z,100850.13
2023-04-15T19:51:04.650Z,100844.53
2023-04-15T19:53:32.084Z,100851.94
2023-04-15T19:55:59.561Z,100861.16
2023-04-15T19:58:27.048Z,100857.50
2023-04-15T20:00:54.553Z,100859.44
2023-04-15T20:03:23.498Z,100866.34
2023-04-15T20:05:51.145Z,100864.63
2023-04-15T20:08:18.914Z,100863.75
2023-04-15T20:10:46.352Z,100868.53
2023-04-15T20:13:13.820Z,100865.41
2023-04-15T20:15:41.351Z,100871.06
2023-04-15T20:18:08.911Z,100867.97
2023-04-15T20:20:41.479Z,100865.59
2023-04-15T20:23:08.992Z,100873.09
2023-04-15T20:25:36.464Z,100863.66
2023-04-15T20:28:03.874Z,100874.91
2023-04-15T20:30:31.309Z,100881.72
2023-04-15T20:32:58.806Z,100875.72
2023-04-15T20:35:28.186Z,100875.69
2023-04-15T20:37:56.976Z,100881.69
2023-04-15T20:40:24.429Z,100884.63
2023-04-15T20:42:51.824Z,100881.75
2023-04-15T20:45:19.252Z,100885.72
2023-04-15T20:47:46.707Z,100881.69
2023-04-15T20:50:14.383Z,100886.56
2023-04-15T20:52:41.779Z,100886.13
2023-04-15T20:55:11.161Z,100883.81
2023-04-15T20:57:38.568Z,100892.22
2023-04-15T21:00:09.331Z,100891.81
2023-04-15T21:02:36.926Z,100898.63
2023-04-15T21:05:04.655Z,100898.81
2023-04-15T21:07:32.083Z,100892.09
2023-04-15T21:09:59.486Z,100901.59
2023-04-15T21:12:28.281Z,100896.56
2023-04-15T21:14:55.719Z,100897.41
2023-04-15T21:17:23.223Z,100896.56
2023-04-15T21:19:50.843Z,100900.97
2023-04-15T21:22:18.257Z,100906.94
2023-04-15T21:24:45.673Z,100899.25
2023-04-15T21:27:13.093Z,100913.78
2023-04-15T21:29:41.818Z,100918.97
2023-04-15T21:32:09.331Z,100922.72
2023-04-15T21:34:36.986Z,100907.66
2023-04-15T21:37:04.509Z,100901.09
2023-04-15T21:39:32.386Z,100914.72
2023-04-15T21:42:00.492Z,100921.03
2023-04-15T21:44:27.994Z,100919.78
2023-04-15T21:46:56.776Z,100918.09
2023-04-15T21:49:25.524Z,100924.56
2023-04-15T21:51:53.021Z,100924.13
2023-04-15T21:54:20.453Z,100941.84
2023-04-15T21:56:49.667Z,100935.84
2023-04-15T21:59:17.102Z,100929.97
2023-04-15T22:01:44.622Z,100936.09
2023-04-15T22:04:13.654Z,100947.81
2023-04-15T22:06:41.203Z,100938.97
2023-04-15T22:09:08.684Z,100936.44
2023-04-15T22:11:36.192Z,100948.50
2023-04-15T22:14:03.657Z,100952.59
2023-04-15T22:16:31.129Z,100957.66
2023-04-15T22:18:58.627Z,100957.47
2023-04-15T22:21:27.763Z,100965.34
2023-04-15T22:24:38.869Z,100965.97
2023-04-15T22:26:42.657Z,100970.19
2023-04-15T22:29:10.620Z,100972.09
2023-04-15T22:31:38.111Z,100974.56
2023-04-15T22:34:05.599Z,100975.47
2023-04-15T22:36:34.470Z,100975.47
2023-04-15T22:39:01.860Z,100979.56
2023-04-15T22:41:29.344Z,100977.97
2023-04-15T22:43:56.748Z,100985.56
2023-04-15T22:46:24.193Z,100989.09
2023-04-15T22:48:51.613Z,100991.06
2023-04-15T22:51:22.699Z,100989.72
2023-04-15T22:53:51.501Z,100998.03
2023-04-15T22:56:19.762Z,100997.34
2023-04-15T22:58:47.197Z,101000.38
2023-04-15T23:01:17.323Z,100999.84
2023-04-15T23:03:55.822Z,101002.50
2023-04-15T23:06:28.674Z,101007.38
2023-04-15T23:08:57.356Z,101004.09
2023-04-15T23:11:24.771Z,101004.03
2023-04-15T23:13:53.050Z,101011.03
2023-04-15T23:16:20.544Z,101010.75
2023-04-15T23:18:48.027Z,101017.91
2023-04-15T23:21:15.672Z,101022.78
2023-04-15T23:23:43.096Z,101014.38
2023-04-15T23:26:11.869Z,101019.44
2023-04-15T23:28:39.320Z,101019.66
2023-04-15T23:31:07.628Z,101019.19
2023-04-15T23:33:35.149Z,101023.41
2023-04-15T23:36:02.612Z,101022.31
2023-04-15T23:38:30.023Z,101015.16
2023-04-15T23:40:57.506Z,101024.47
2023-04-15T23:43:26.350Z,101017.13
2023-04-15T23:45:53.726Z,101025.34
2023-04-15T23:48:23.544Z,101023.19
2023-04-15T23:50:50.991Z,101021.22
2023-04-15T23:53:18.525Z,101022.97
2023-04-15T23:55:45.893Z,101022.69
2023-04-15T23:58:13.348Z,101028.16
